SE Lincoln WX Station Historical Data
 
Daily Summary for September 18, 2020 Units:  English    Metric   Both
Daily Weekly Monthly Yearly
  Current: High: Low: Average:
Temperature: 72.7 °F 74 °F 49.7 °F 58.9 °F
Dew Point: 50.2 °F 51.5 °F 44.1 °F 48.5 °F
Humidity: 45% 89% 43.8% 70%
Wind Speed: 4.6mph 6.8mph 0mph 2.8mph
Wind Gust: 7mph 14mph - -
WindESE - - East
Pressure: 30.24 in 30.35 in 30.22 in -
Precipitation: 0.00 in      
 
 
Tabular Data for September 18, 2020
Time Temperature Dew Point Pressure Wind Wind Speed Wind Gust Humidity Rainfall Rate (Hourly) solar
00:04 54.4 °F 51 °F 30.22 in Calm     88% 0.00 in 0 W/m2
00:09 54.4 °F 50.9 °F 30.22 in Calm     88% 0.00 in 0 W/m2
00:14 54.4 °F 51.1 °F 30.22 in ESE 0.3 mph 4 mph 88.5% 0.00 in 0 W/m2
00:19 54.4 °F 51.2 °F 30.23 in ESE 0.4 mph 4 mph 89% 0.00 in 0 W/m2
00:24 54.5 °F 51.4 °F 30.23 in ESE 1.4 mph 2 mph 89% 0.00 in 0 W/m2
00:29 54.8 °F 51.4 °F 30.23 in ESE 0.3 mph 2 mph 88.2% 0.00 in 0 W/m2
00:34 55 °F 51.5 °F 30.23 in ESE 1 mph 2 mph 88% 0.00 in 0 W/m2
00:39 55.2 °F 51.4 °F 30.23 in ESE 0.8 mph 2 mph 87% 0.00 in 0 W/m2
00:44 55.4 °F 51.4 °F 30.23 in ESE 0.6 mph 2 mph 86.4% 0.00 in 0 W/m2
00:49 55.5 °F 51.4 °F 30.23 in ESE 0.4 mph 1 mph 85.9% 0.00 in 0 W/m2
00:54 55.6 °F 51.3 °F 30.23 in ESE 0.8 mph 2 mph 85.2% 0.00 in 0 W/m2
00:59 55.8 °F 51.3 °F 30.23 in ESE 1.4 mph 4 mph 84.7% 0.00 in 0 W/m2
01:04 56 °F 51.2 °F 30.23 in ESE 1.6 mph 4 mph 84% 0.00 in 0 W/m2
01:09 56.3 °F 51.2 °F 30.23 in East 1.8 mph 4 mph 83% 0.00 in 0 W/m2
01:14 56.5 °F 51.1 °F 30.23 in ENE 1.8 mph 3 mph 81.9% 0.00 in 0 W/m2
01:19 56.7 °F 50.9 °F 30.23 in ENE 1.3 mph 2 mph 81% 0.00 in 0 W/m2
01:24 56.8 °F 51 °F 30.23 in ENE 1.2 mph 3 mph 81% 0.00 in 0 W/m2
01:29 56.9 °F 50.8 °F 30.23 in ENE 1.5 mph 4 mph 80% 0.00 in 0 W/m2
01:34 57 °F 50.9 °F 30.23 in ENE 1.6 mph 3 mph 80% 0.00 in 0 W/m2
01:39 57 °F 50.9 °F 30.23 in ENE 1.4 mph 3 mph 80% 0.00 in 0 W/m2
01:44 56.9 °F 50.8 °F 30.24 in ENE 1.5 mph 3 mph 80% 0.00 in 0 W/m2
01:49 56.8 °F 50.8 °F 30.24 in ENE 1.4 mph 3 mph 80% 0.00 in 0 W/m2
01:54 56.7 °F 50.6 °F 30.24 in ENE 1.5 mph 3 mph 80% 0.00 in 0 W/m2
01:59 56.6 °F 50.7 °F 30.24 in ENE 0.9 mph 2 mph 80.5% 0.00 in 0 W/m2
02:04 56.5 °F 50.7 °F 30.24 in ENE 0.9 mph 2 mph 81% 0.00 in 0 W/m2
02:09 56.3 °F 50.5 °F 30.24 in ENE 1.1 mph 2 mph 81% 0.00 in 0 W/m2
02:14 56.1 °F 50.4 °F 30.24 in ENE 0.9 mph 2 mph 81% 0.00 in 0 W/m2
02:19 56 °F 50.2 °F 30.24 in ENE 1.1 mph 2 mph 81% 0.00 in 0 W/m2
02:24 55.8 °F 50.2 °F 30.24 in ENE 1.4 mph 3 mph 81.3% 0.00 in 0 W/m2
02:29 55.7 °F 50.2 °F 30.24 in ENE 0.9 mph 3 mph 81.8% 0.00 in 0 W/m2
02:34 55.6 °F 50.2 °F 30.24 in ENE 0.5 mph 1 mph 82% 0.00 in 0 W/m2
02:39 55.6 °F 50.2 °F 30.24 in ENE 0.4 mph 2 mph 82% 0.00 in 0 W/m2
02:44 55.5 °F 50.1 °F 30.24 in ENE 0.1 mph 1 mph 82% 0.00 in 0 W/m2
02:49 55.4 °F 50 °F 30.24 in ENE 0.2 mph 1 mph 82% 0.00 in 0 W/m2
02:54 55.3 °F 49.9 °F 30.24 in ENE 0.2 mph 1 mph 82% 0.00 in 0 W/m2
02:59 55.2 °F 49.9 °F 30.24 in Calm   1 mph 82.3% 0.00 in 0 W/m2
03:04 55 °F 49.9 °F 30.24 in ENE 0.1 mph 1 mph 83% 0.00 in 0 W/m2
03:09 54.9 °F 49.8 °F 30.25 in ENE 0.2 mph 1 mph 83% 0.00 in 0 W/m2
03:14 54.7 °F 49.7 °F 30.25 in ENE 0.6 mph 1 mph 83.1% 0.00 in 0 W/m2
03:19 54.5 °F 49.8 °F 30.25 in ENE 1.1 mph 3 mph 84% 0.00 in 0 W/m2
03:24 54.4 °F 49.6 °F 30.25 in ENE 1.1 mph 3 mph 84% 0.00 in 0 W/m2
03:29 54.3 °F 49.6 °F 30.25 in ENE 0.3 mph 1 mph 84% 0.00 in 0 W/m2
03:34 54.2 °F 49.5 °F 30.25 in ENE 0.5 mph 2 mph 84% 0.00 in 0 W/m2
03:39 54.1 °F 49.7 °F 30.25 in ENE 1.6 mph 5 mph 84.8% 0.00 in 0 W/m2
03:44 54 °F 49.6 °F 30.25 in East 1 mph 3 mph 85% 0.00 in 0 W/m2
03:49 54 °F 49.6 °F 30.26 in ENE 2 mph 4 mph 85% 0.00 in 0 W/m2
03:54 54 °F 49.6 °F 30.26 in ENE 2.6 mph 5 mph 85% 0.00 in 0 W/m2
03:59 54 °F 49.6 °F 30.26 in ENE 1.8 mph 5 mph 85% 0.00 in 0 W/m2
04:04 54 °F 49.6 °F 30.26 in ENE 1.5 mph 4 mph 85% 0.00 in 0 W/m2
04:09 54 °F 49.6 °F 30.26 in ENE 1.5 mph 5 mph 85% 0.00 in 0 W/m2
04:14 53.9 °F 49.5 °F 30.26 in ENE 2.5 mph 6 mph 85% 0.00 in 0 W/m2
04:19 53.8 °F 49.4 °F 30.26 in ENE 2.2 mph 5 mph 85% 0.00 in 0 W/m2
04:24 53.8 °F 49.4 °F 30.26 in ENE 2.1 mph 6 mph 85% 0.00 in 0 W/m2
04:29 53.7 °F 49.3 °F 30.27 in ENE 2.2 mph 4 mph 85% 0.00 in 0 W/m2
04:34 53.6 °F 49.2 °F 30.27 in ENE 2.5 mph 5 mph 85% 0.00 in 0 W/m2
04:39 53.5 °F 49.1 °F 30.27 in ENE 2.3 mph 5 mph 85% 0.00 in 0 W/m2
04:44 53.5 °F 48.9 °F 30.27 in ENE 3.6 mph 7 mph 84.3% 0.00 in 0 W/m2
04:49 53.5 °F 48.6 °F 30.27 in ENE 3.6 mph 7 mph 83.4% 0.00 in 0 W/m2
04:54 53.5 °F 48.5 °F 30.27 in ENE 3.2 mph 7 mph 83% 0.00 in 0 W/m2
04:59 53.5 °F 48.2 °F 30.28 in ENE 3.1 mph 6 mph 82% 0.00 in 0 W/m2
05:04 53.5 °F 47.9 °F 30.28 in ENE 3.8 mph 7 mph 81.2% 0.00 in 0 W/m2
05:09 53.5 °F 47.8 °F 30.28 in ENE 2.6 mph 7 mph 81% 0.00 in 0 W/m2
05:14 53.4 °F 47.7 °F 30.28 in ENE 3.7 mph 7 mph 81% 0.00 in 0 W/m2
05:19 53.3 °F 47.5 °F 30.28 in ENE 3.7 mph 7 mph 80.5% 0.00 in 0 W/m2
05:24 53.2 °F 47.2 °F 30.28 in ENE 4.2 mph 8 mph 80% 0.00 in 0 W/m2
05:29 53.1 °F 47.1 °F 30.28 in East 4.2 mph 8 mph 79.8% 0.00 in 0 W/m2
05:34 53 °F 46.7 °F 30.28 in ENE 3.1 mph 6 mph 79% 0.00 in 0 W/m2
05:39 53 °F 46.6 °F 30.28 in ENE 3.5 mph 7 mph 79% 0.00 in 0 W/m2
05:44 52.9 °F 46.5 °F 30.28 in ENE 3.6 mph 8 mph 79% 0.00 in 0 W/m2
05:49 52.7 °F 46.4 °F 30.28 in ENE 3.8 mph 9 mph 79% 0.00 in 0 W/m2
05:54 52.7 °F 46.3 °F 30.29 in ENE 4.2 mph 10 mph 78.8% 0.00 in 0 W/m2
05:59 52.6 °F 45.9 °F 30.29 in ENE 4.5 mph 7 mph 78% 0.00 in 0 W/m2
06:04 52.5 °F 45.8 °F 30.29 in ENE 3.7 mph 7 mph 78% 0.00 in 0 W/m2
06:09 52.3 °F 45.7 °F 30.29 in ENE 3.5 mph 7 mph 78% 0.00 in 0 W/m2
06:14 52.2 °F 45.5 °F 30.29 in ENE 2.3 mph 10 mph 78% 0.00 in 0 W/m2
06:19 52 °F 45.5 °F 30.29 in ENE 3.4 mph 5 mph 78.4% 0.00 in 0 W/m2
06:24 51.8 °F 45.5 °F 30.29 in ENE 3.2 mph 6 mph 78.9% 0.00 in 0 W/m2
06:29 51.6 °F 45.2 °F 30.29 in East 3 mph 6 mph 78.7% 0.00 in 0 W/m2
06:34 51.5 °F 45.2 °F 30.29 in ENE 3.9 mph 7 mph 79% 0.00 in 0 W/m2
06:39 51.4 °F 45.1 °F 30.29 in NE 3.1 mph 7 mph 79% 0.00 in 0 W/m2
06:44 51.2 °F 44.9 °F 30.30 in ENE 2.7 mph 7 mph 79% 0.00 in 0 W/m2
06:49 51.1 °F 44.8 °F 30.30 in East 2.7 mph 10 mph 79% 0.00 in 0 W/m2
06:54 50.9 °F 44.7 °F 30.30 in East 2.9 mph 6 mph 79% 0.00 in 0 W/m2
06:59 50.8 °F 44.5 °F 30.30 in NE 3 mph 6 mph 79.1% 0.00 in 0 W/m2
07:04 50.6 °F 44.7 °F 30.30 in ENE 2.2 mph 5 mph 80% 0.00 in 0 W/m2
07:09 50.4 °F 44.5 °F 30.30 in ENE 2.3 mph 4 mph 80% 0.00 in 0 W/m2
07:14 50.3 °F 44.4 °F 30.31 in ENE 2.7 mph 5 mph 80% 0.00 in 0 W/m2
07:19 50.1 °F 44.3 °F 30.31 in ENE 2.8 mph 5 mph 80.2% 0.00 in 9 W/m2
07:24 50 °F 44.4 °F 30.31 in ENE 3.8 mph 10 mph 81% 0.00 in 14 W/m2
07:29 49.8 °F 44.3 °F 30.31 in ENE 3.9 mph 7 mph 81% 0.00 in 18 W/m2
07:34 49.8 °F 44.2 °F 30.31 in ENE 3.2 mph 7 mph 81% 0.00 in 25 W/m2
07:39 49.7 °F 44.1 °F 30.32 in ENE 3.2 mph 6 mph 81% 0.00 in 30 W/m2
07:44 49.7 °F 44.1 °F 30.32 in ENE 3.8 mph 7 mph 81% 0.00 in 37 W/m2
07:49 49.7 °F 44.1 °F 30.32 in ENE 3.4 mph 7 mph 81% 0.00 in 46 W/m2
07:54 49.8 °F 44.2 °F 30.32 in ENE 4.2 mph 10 mph 81% 0.00 in 53 W/m2
07:59 49.8 °F 44.2 °F 30.32 in East 3.7 mph 6 mph 81% 0.00 in 62 W/m2
08:04 49.9 °F 44.3 °F 30.32 in ENE 3.1 mph 6 mph 81% 0.00 in 70 W/m2
08:09 50 °F 44.4 °F 30.33 in East 3 mph 7 mph 80.8% 0.00 in 86 W/m2
08:14 50.2 °F 44.3 °F 30.33 in ENE 3.4 mph 8 mph 80% 0.00 in 98 W/m2
08:19 50.4 °F 44.4 °F 30.33 in ENE 3.1 mph 6 mph 80% 0.00 in 111 W/m2
08:24 50.5 °F 44.5 °F 30.33 in East 2.9 mph 5 mph 79.7% 0.00 in 123 W/m2
08:29 50.7 °F 44.6 °F 30.33 in East 2.4 mph 6 mph 79.4% 0.00 in 134 W/m2
08:34 51 °F 44.7 °F 30.34 in East 2.9 mph 8 mph 79% 0.00 in 148 W/m2
08:39 51.3 °F 44.9 °F 30.34 in ENE 2.7 mph 6 mph 78.8% 0.00 in 156 W/m2
08:44 51.6 °F 44.9 °F 30.34 in ENE 2.4 mph 5 mph 78% 0.00 in 160 W/m2
08:49 51.9 °F 45.1 °F 30.34 in ENE 2 mph 6 mph 77.7% 0.00 in 176 W/m2
08:54 52.2 °F 45.2 °F 30.34 in ENE 2.6 mph 6 mph 77% 0.00 in 195 W/m2
08:59 52.5 °F 45.2 °F 30.34 in ENE 4.4 mph 9 mph 75.9% 0.00 in 211 W/m2
09:04 52.8 °F 45.1 °F 30.34 in East 3.9 mph 8 mph 75% 0.00 in 227 W/m2
09:09 53 °F 45.1 °F 30.34 in East 3.6 mph 10 mph 74.5% 0.00 in 237 W/m2
09:14 53.3 °F 45.2 °F 30.34 in ESE 3.1 mph 9 mph 74% 0.00 in 246 W/m2
09:19 53.7 °F 45.4 °F 30.34 in East 3.7 mph 9 mph 73.4% 0.00 in 255 W/m2
09:24 54.1 °F 45.6 °F 30.34 in ESE 3.2 mph 7 mph 72.7% 0.00 in 265 W/m2
09:29 54.4 °F 45.4 °F 30.35 in East 4.9 mph 8 mph 71.6% 0.00 in 271 W/m2
09:34 54.6 °F 45.5 °F 30.35 in East 4 mph 7 mph 71.3% 0.00 in 279 W/m2
09:39 55.1 °F 45.9 °F 30.35 in East 3.3 mph 7 mph 71.1% 0.00 in 290 W/m2
09:44 55.6 °F 46.2 °F 30.35 in ENE 3.6 mph 8 mph 70.5% 0.00 in 294 W/m2
09:49 56 °F 46 °F 30.35 in East 5.4 mph 11 mph 69.2% 0.00 in 306 W/m2
09:54 56.3 °F 46.3 °F 30.35 in ESE 3.3 mph 7 mph 69% 0.00 in 311 W/m2
09:59 56.7 °F 46.3 °F 30.35 in ENE 6.8 mph 14 mph 68.1% 0.00 in 330 W/m2
10:04 56.7 °F 46.1 °F 30.35 in ENE 5.2 mph 12 mph 67.6% 0.00 in 343 W/m2
10:09 57 °F 46.6 °F 30.35 in East 4.8 mph 10 mph 68% 0.00 in 362 W/m2
10:14 57.3 °F 46.7 °F 30.35 in ESE 4.3 mph 9 mph 67.6% 0.00 in 388 W/m2
10:19 57.6 °F 47 °F 30.35 in East 4.8 mph 11 mph 67.5% 0.00 in 461 W/m2
10:24 58.1 °F 47.2 °F 30.35 in ENE 5.1 mph 10 mph 67% 0.00 in 506 W/m2
10:29 58.4 °F 47.3 °F 30.35 in East 5.2 mph 11 mph 66.7% 0.00 in 452 W/m2
10:34 58.6 °F 47.6 °F 30.35 in East 4.6 mph 10 mph 66.9% 0.00 in 469 W/m2
10:39 59 °F 47.9 °F 30.35 in ENE 4.7 mph 8 mph 66.6% 0.00 in 540 W/m2
10:44 59.4 °F 48 °F 30.35 in East 4.9 mph 10 mph 65.8% 0.00 in 538 W/m2
10:49 59.9 °F 48.5 °F 30.35 in ESE 2.1 mph 5 mph 65.8% 0.00 in 538 W/m2
10:54 60.4 °F 48.5 °F 30.35 in SE 4.3 mph 9 mph 64.6% 0.00 in 548 W/m2
10:59 60.4 °F 48.2 °F 30.35 in ESE 5.7 mph 10 mph 64% 0.00 in 529 W/m2
11:04 60.6 °F 48.3 °F 30.35 in ESE 3.4 mph 8 mph 64% 0.00 in 536 W/m2
11:09 61.2 °F 48.9 °F 30.35 in East 4.3 mph 7 mph 63.7% 0.00 in 541 W/m2
11:14 61.8 °F 48.8 °F 30.35 in ESE 3.5 mph 7 mph 62.4% 0.00 in 550 W/m2
11:19 62.1 °F 49 °F 30.35 in East 3.6 mph 11 mph 62% 0.00 in 559 W/m2
11:24 62.5 °F 49.3 °F 30.35 in East 3 mph 7 mph 61.9% 0.00 in 571 W/m2
11:29 63.1 °F 49.5 °F 30.35 in ENE 2.7 mph 7 mph 61% 0.00 in 575 W/m2
11:34 63.5 °F 49.5 °F 30.35 in East 3.9 mph 7 mph 60.3% 0.00 in 585 W/m2
11:39 63.5 °F 49.5 °F 30.35 in ESE 1.6 mph 6 mph 60.4% 0.00 in 592 W/m2
11:44 64.2 °F 50.2 °F 30.34 in ESE 2.7 mph 8 mph 60.4% 0.00 in 605 W/m2
11:49 64.4 °F 49.8 °F 30.34 in SSE 3.3 mph 8 mph 59% 0.00 in 606 W/m2
11:54 64.6 °F 50.3 °F 30.34 in East 4.7 mph 8 mph 59.6% 0.00 in 608 W/m2
11:59 64.8 °F 50 °F 30.34 in SSE 2.4 mph 7 mph 58.8% 0.00 in 619 W/m2
12:04 65.9 °F 50.9 °F 30.34 in East 3.3 mph 6 mph 58.3% 0.00 in 628 W/m2
12:09 66.4 °F 50.7 °F 30.34 in SE 3.9 mph 9 mph 56.9% 0.00 in 631 W/m2
12:14 66 °F 50 °F 30.34 in SE 2.9 mph 9 mph 56.3% 0.00 in 633 W/m2
12:19 66.2 °F 50.4 °F 30.34 in ESE 4.3 mph 8 mph 56.7% 0.00 in 638 W/m2
12:24 66.8 °F 50.8 °F 30.34 in East 3.2 mph 7 mph 56.4% 0.00 in 642 W/m2
12:29 67.2 °F 50.6 °F 30.33 in ESE 3.9 mph 8 mph 55.3% 0.00 in 645 W/m2
12:34 67.2 °F 50.5 °F 30.33 in East 4.2 mph 11 mph 55% 0.00 in 652 W/m2
12:39 67.7 °F 50.7 °F 30.33 in ESE 2.3 mph 6 mph 54.5% 0.00 in 656 W/m2
12:44 68.4 °F 50.8 °F 30.33 in ESE 3.3 mph 7 mph 53.4% 0.00 in 666 W/m2
12:49 68.5 °F 50.3 °F 30.33 in SE 3.4 mph 10 mph 52.2% 0.00 in 700 W/m2
12:54 68.8 °F 50.6 °F 30.33 in East 2.4 mph 10 mph 52.1% 0.00 in 694 W/m2
12:59 68.8 °F 50.6 °F 30.33 in SE 3.7 mph 11 mph 52.3% 0.00 in 603 W/m2
13:04 68.5 °F 50 °F 30.33 in SE 4 mph 9 mph 51.6% 0.00 in 640 W/m2
13:09 69 °F 50.2 °F 30.32 in ENE 3.2 mph 7 mph 51.2% 0.00 in 656 W/m2
13:14 69.8 °F 50.4 °F 30.32 in East 2 mph 6 mph 50.1% 0.00 in 643 W/m2
13:19 70.3 °F 50.3 °F 30.32 in SE 2.8 mph 7 mph 49.2% 0.00 in 596 W/m2
13:24 70.4 °F 49.8 °F 30.32 in ESE 3.7 mph 9 mph 48% 0.00 in 570 W/m2
13:29 70.3 °F 49.7 °F 30.32 in South 2.5 mph 7 mph 48% 0.00 in 563 W/m2
13:34 70.2 °F 49.9 °F 30.31 in SE 2.2 mph 6 mph 48.5% 0.00 in 594 W/m2
13:39 70.4 °F 50.3 °F 30.31 in SE 3.7 mph 8 mph 48.8% 0.00 in 626 W/m2
13:44 70.8 °F 50.2 °F 30.31 in ESE 2.9 mph 8 mph 48% 0.00 in 642 W/m2
13:49 71.4 °F 49.6 °F 30.31 in East 3.8 mph 11 mph 46.1% 0.00 in 657 W/m2
13:54 71.1 °F 49.2 °F 30.31 in East 3.4 mph 8 mph 45.9% 0.00 in 657 W/m2
13:59 71.2 °F 49.4 °F 30.30 in ENE 3.4 mph 7 mph 46% 0.00 in 656 W/m2
14:04 71.5 °F 49.9 °F 30.30 in East 2.8 mph 6 mph 46.4% 0.00 in 643 W/m2
14:09 71.7 °F 49.9 °F 30.30 in ESE 3.7 mph 7 mph 46% 0.00 in 647 W/m2
14:14 71.6 °F 50 °F 30.30 in East 4.1 mph 10 mph 46.4% 0.00 in 640 W/m2
14:19 72 °F 49.9 °F 30.29 in SSE 2.5 mph 8 mph 45.7% 0.00 in 633 W/m2
14:24 72.2 °F 50.2 °F 30.29 in East 2.5 mph 6 mph 45.8% 0.00 in 622 W/m2
14:29 72.3 °F 50.3 °F 30.28 in SSE 3.6 mph 8 mph 45.8% 0.00 in 621 W/m2
14:34 72.1 °F 50 °F 30.28 in SE 3 mph 8 mph 45.8% 0.00 in 621 W/m2
14:39 72.4 °F 50 °F 30.28 in SSE 3 mph 7 mph 45.2% 0.00 in 608 W/m2
14:44 72.8 °F 50.7 °F 30.27 in SE 2.3 mph 7 mph 45.8% 0.00 in 603 W/m2
14:49 72.9 °F 49.8 °F 30.27 in East 3 mph 7 mph 44.1% 0.00 in 598 W/m2
14:54 72.9 °F 50.2 °F 30.27 in ESE 2.8 mph 9 mph 44.8% 0.00 in 598 W/m2
14:59 73.1 °F 50.3 °F 30.27 in East 3.2 mph 5 mph 44.6% 0.00 in 585 W/m2
15:04 73 °F 50 °F 30.27 in East 3.4 mph 7 mph 44.3% 0.00 in 577 W/m2
15:09 73 °F 50.4 °F 30.26 in SE 2.8 mph 7 mph 44.9% 0.00 in 647 W/m2
15:14 73.3 °F 50.3 °F 30.26 in East 4.6 mph 10 mph 44.4% 0.00 in 677 W/m2
15:19 73.8 °F 50.8 °F 30.26 in East 4.3 mph 8 mph 44.5% 0.00 in 682 W/m2
15:24 74 °F 50.5 °F 30.26 in East 3.5 mph 8 mph 43.8% 0.00 in 656 W/m2
15:29 73.5 °F 50.2 °F 30.26 in SE 3.1 mph 7 mph 43.9% 0.00 in 547 W/m2
15:34 73 °F 50.1 °F 30.26 in ESE 4 mph 8 mph 44.5% 0.00 in 529 W/m2
15:39 73.2 °F 50.7 °F 30.25 in SSE 2.8 mph 7 mph 45.2% 0.00 in 512 W/m2
15:44 73.3 °F 50.4 °F 30.25 in South 2.3 mph 8 mph 44.5% 0.00 in 508 W/m2
15:49 73.6 °F 51 °F 30.25 in SSE 2.2 mph 7 mph 45.1% 0.00 in 487 W/m2
15:54 73.5 °F 50.8 °F 30.25 in SE 2.6 mph 11 mph 44.9% 0.00 in 450 W/m2
15:59 73.5 °F 51.2 °F 30.25 in ESE 2.4 mph 6 mph 45.6% 0.00 in 420 W/m2
16:04 73.2 °F 50.2 °F 30.24 in SE 3.1 mph 6 mph 44.3% 0.00 in 496 W/m2
16:09 72.7 °F 50.2 °F 30.24 in ESE 4.6 mph 7 mph 45% 0.00 in 485 W/m2
66th and South
Compliments of Weather Underground - 12.53 mb